MSR638 ORBI-HECA
Flight info
| Callsign | MSR638 |
|---|---|
| Flight time | N/A |
| Altitude | 36000 |
| Route | SILBO L200 DAXEN/N0459F370 L200 LUDAN/N0457F380 DCT ELETA DCT ULINA DCT MENLI DCT CI05R |
| Aircraft | B738/M-SDE2E3FGHIRWXY/LB1 |
Departure
| Time | N/A |
|---|---|
| Airport | Baghdad International Airport / New Al Muthana Air Base (ORBI) |
Arrival
| Time | 2026-05-04 19:33 |
|---|---|
| Airport | Cairo International Airport (HECA) |
| Time | Latitude | Longitude | Altitude | Speed | Heading |
|---|---|---|---|---|---|
| 2026-05-04 18:43 | 29.96507 | 35.67347 | 36177 ft | 391 kts | 209° |
| 2026-05-04 18:43 | 29.91433 | 35.65095 | 36165 ft | 391 kts | 208° |
| 2026-05-04 18:44 | 29.86338 | 35.62838 | 36145 ft | 391 kts | 209° |
| 2026-05-04 18:44 | 29.81263 | 35.60591 | 36168 ft | 392 kts | 209° |
| 2026-05-04 18:45 | 29.76159 | 35.58336 | 36179 ft | 393 kts | 209° |
| 2026-05-04 18:45 | 29.71039 | 35.56069 | 36164 ft | 395 kts | 209° |
| 2026-05-04 18:46 | 29.65938 | 35.53736 | 36143 ft | 395 kts | 208° |
| 2026-05-04 18:46 | 29.60785 | 35.51551 | 36153 ft | 394 kts | 208° |
| 2026-05-04 18:47 | 29.55953 | 35.48842 | 36183 ft | 377 kts | 226° |
| 2026-05-04 18:47 | 29.52694 | 35.44253 | 36173 ft | 370 kts | 243° |
| 2026-05-04 18:48 | 29.51018 | 35.38640 | 36166 ft | 376 kts | 254° |
| 2026-05-04 18:48 | 29.49721 | 35.32804 | 36170 ft | 380 kts | 254° |
| 2026-05-04 18:49 | 29.48391 | 35.26923 | 36158 ft | 381 kts | 254° |
| 2026-05-04 18:49 | 29.47023 | 35.21038 | 36165 ft | 381 kts | 253° |
| 2026-05-04 18:50 | 29.45656 | 35.15226 | 36167 ft | 373 kts | 253° |
| 2026-05-04 18:50 | 29.44308 | 35.09503 | 36169 ft | 371 kts | 253° |
| 2026-05-04 18:51 | 29.42960 | 35.03793 | 36164 ft | 370 kts | 253° |
| 2026-05-04 18:51 | 29.41930 | 34.98017 | 36189 ft | 372 kts | 262° |
| 2026-05-04 18:52 | 29.42024 | 34.92040 | 36154 ft | 379 kts | 273° |
| 2026-05-04 18:52 | 29.42807 | 34.86073 | 36152 ft | 379 kts | 274° |
| 2026-05-04 18:53 | 29.43606 | 34.80101 | 36156 ft | 379 kts | 273° |
| 2026-05-04 18:53 | 29.44394 | 34.74115 | 36156 ft | 380 kts | 273° |
| 2026-05-04 18:54 | 29.45170 | 34.68124 | 36127 ft | 380 kts | 274° |
| 2026-05-04 18:54 | 29.45941 | 34.62136 | 36160 ft | 379 kts | 273° |
| 2026-05-04 18:55 | 29.46708 | 34.56153 | 36175 ft | 379 kts | 273° |
| 2026-05-04 18:55 | 29.47845 | 34.47221 | 36202 ft | 379 kts | 274° |
| 2026-05-04 18:56 | 29.48604 | 34.41241 | 36197 ft | 379 kts | 274° |
| 2026-05-04 18:56 | 29.49360 | 34.35258 | 36185 ft | 379 kts | 274° |
| 2026-05-04 18:57 | 29.50114 | 34.29270 | 36188 ft | 379 kts | 274° |
| 2026-05-04 18:57 | 29.50865 | 34.23285 | 36192 ft | 378 kts | 274° |
| 2026-05-04 18:58 | 29.51613 | 34.17300 | 36197 ft | 379 kts | 274° |
| 2026-05-04 18:58 | 29.52358 | 34.11315 | 36192 ft | 378 kts | 274° |
| 2026-05-04 18:59 | 29.53098 | 34.05346 | 36199 ft | 378 kts | 274° |
| 2026-05-04 18:59 | 29.53838 | 33.99357 | 36198 ft | 378 kts | 274° |
| 2026-05-04 19:00 | 29.54574 | 33.93385 | 36215 ft | 378 kts | 274° |
| 2026-05-04 19:00 | 29.55306 | 33.87412 | 36206 ft | 378 kts | 274° |
| 2026-05-04 19:01 | 29.56036 | 33.81439 | 36203 ft | 378 kts | 274° |
| 2026-05-04 19:01 | 29.56763 | 33.75469 | 36205 ft | 377 kts | 274° |
| 2026-05-04 19:02 | 29.57487 | 33.69497 | 36203 ft | 378 kts | 274° |
| 2026-05-04 19:02 | 29.58209 | 33.63517 | 36209 ft | 378 kts | 274° |
| 2026-05-04 19:03 | 29.58935 | 33.57479 | 36206 ft | 379 kts | 274° |
| 2026-05-04 19:03 | 29.59654 | 33.51484 | 36204 ft | 379 kts | 274° |
| 2026-05-04 19:04 | 29.60366 | 33.45520 | 36212 ft | 379 kts | 274° |
| 2026-05-04 19:04 | 29.61079 | 33.39519 | 36213 ft | 379 kts | 274° |
| 2026-05-04 19:05 | 29.61795 | 33.33477 | 36207 ft | 379 kts | 274° |
| 2026-05-04 19:05 | 29.62504 | 33.27471 | 35983 ft | 383 kts | 274° |
| 2026-05-04 19:06 | 29.62856 | 33.24463 | 35608 ft | 383 kts | 274° |
| 2026-05-04 19:06 | 29.63214 | 33.21425 | 35056 ft | 380 kts | 274° |
| 2026-05-04 19:06 | 29.63570 | 33.18401 | 34607 ft | 375 kts | 274° |
| 2026-05-04 19:06 | 29.63916 | 33.15451 | 34204 ft | 371 kts | 274° |
| 2026-05-04 19:07 | 29.64258 | 33.12523 | 33694 ft | 368 kts | 274° |
| 2026-05-04 19:07 | 29.64592 | 33.09658 | 33237 ft | 364 kts | 274° |
| 2026-05-04 19:07 | 29.64924 | 33.06802 | 32794 ft | 360 kts | 275° |
| 2026-05-04 19:07 | 29.65254 | 33.03958 | 32369 ft | 355 kts | 275° |
| 2026-05-04 19:08 | 29.65578 | 33.01161 | 31941 ft | 352 kts | 275° |
| 2026-05-04 19:08 | 29.65899 | 32.98382 | 31526 ft | 348 kts | 275° |
| 2026-05-04 19:08 | 29.66215 | 32.95641 | 31123 ft | 345 kts | 275° |
| 2026-05-04 19:08 | 29.66528 | 32.92919 | 30718 ft | 342 kts | 275° |
| 2026-05-04 19:09 | 29.66838 | 32.90224 | 30325 ft | 339 kts | 275° |
| 2026-05-04 19:09 | 29.67145 | 32.87553 | 29905 ft | 336 kts | 275° |
| 2026-05-04 19:09 | 29.67448 | 32.84913 | 29461 ft | 332 kts | 275° |
| 2026-05-04 19:09 | 29.67746 | 32.82301 | 29049 ft | 327 kts | 275° |
| 2026-05-04 19:10 | 29.68039 | 32.79737 | 28648 ft | 323 kts | 275° |
| 2026-05-04 19:10 | 29.68330 | 32.77184 | 28247 ft | 319 kts | 275° |
| 2026-05-04 19:10 | 29.68616 | 32.74666 | 27840 ft | 316 kts | 275° |
| 2026-05-04 19:10 | 29.68899 | 32.72175 | 27443 ft | 312 kts | 275° |
| 2026-05-04 19:11 | 29.69178 | 32.69712 | 27060 ft | 309 kts | 275° |
| 2026-05-04 19:11 | 29.69454 | 32.67270 | 26669 ft | 306 kts | 275° |
| 2026-05-04 19:11 | 29.69727 | 32.64857 | 26293 ft | 304 kts | 275° |
| 2026-05-04 19:11 | 29.69997 | 32.62457 | 25916 ft | 301 kts | 275° |
| 2026-05-04 19:12 | 29.70264 | 32.60084 | 25570 ft | 299 kts | 275° |
| 2026-05-04 19:12 | 29.70794 | 32.55368 | 24829 ft | 297 kts | 275° |
| 2026-05-04 19:12 | 29.71057 | 32.53011 | 24461 ft | 296 kts | 275° |
| 2026-05-04 19:13 | 29.71321 | 32.50648 | 24108 ft | 302 kts | 275° |
| 2026-05-04 19:13 | 29.71592 | 32.48208 | 23722 ft | 312 kts | 275° |
| 2026-05-04 19:13 | 29.71868 | 32.45726 | 23272 ft | 313 kts | 275° |
| 2026-05-04 19:13 | 29.72144 | 32.43254 | 22843 ft | 310 kts | 275° |
| 2026-05-04 19:14 | 29.72415 | 32.40823 | 22472 ft | 306 kts | 275° |
| 2026-05-04 19:14 | 29.72684 | 32.38403 | 22086 ft | 302 kts | 275° |
| 2026-05-04 19:14 | 29.72948 | 32.36021 | 21706 ft | 299 kts | 275° |
| 2026-05-04 19:14 | 29.73209 | 32.33660 | 21352 ft | 296 kts | 275° |
| 2026-05-04 19:15 | 29.73467 | 32.31323 | 20972 ft | 293 kts | 275° |
| 2026-05-04 19:15 | 29.73722 | 32.29008 | 20615 ft | 291 kts | 275° |
| 2026-05-04 19:15 | 29.73976 | 32.26706 | 20260 ft | 289 kts | 275° |
| 2026-05-04 19:15 | 29.74225 | 32.24430 | 19909 ft | 286 kts | 276° |
| 2026-05-04 19:16 | 29.74474 | 32.22164 | 19564 ft | 285 kts | 276° |
| 2026-05-04 19:16 | 29.74721 | 32.19909 | 19212 ft | 283 kts | 276° |
| 2026-05-04 19:16 | 29.74966 | 32.17668 | 18875 ft | 281 kts | 276° |
| 2026-05-04 19:16 | 29.75209 | 32.15440 | 18530 ft | 280 kts | 276° |
| 2026-05-04 19:17 | 29.75450 | 32.13224 | 18156 ft | 279 kts | 276° |
| 2026-05-04 19:17 | 29.75691 | 32.11011 | 17773 ft | 277 kts | 276° |
| 2026-05-04 19:17 | 29.75929 | 32.08819 | 17411 ft | 275 kts | 276° |
| 2026-05-04 19:17 | 29.76165 | 32.06643 | 17078 ft | 273 kts | 276° |
| 2026-05-04 19:18 | 29.76399 | 32.04483 | 16736 ft | 271 kts | 276° |
| 2026-05-04 19:18 | 29.76632 | 32.02329 | 16396 ft | 270 kts | 276° |
| 2026-05-04 19:18 | 29.76862 | 32.00192 | 16057 ft | 269 kts | 276° |
| 2026-05-04 19:18 | 29.77093 | 31.98047 | 15723 ft | 271 kts | 276° |
| 2026-05-04 19:19 | 29.77323 | 31.95913 | 15395 ft | 274 kts | 276° |
| 2026-05-04 19:19 | 29.77561 | 31.93700 | 15053 ft | 283 kts | 276° |
| 2026-05-04 19:19 | 29.77807 | 31.91407 | 14690 ft | 286 kts | 276° |
| 2026-05-04 19:19 | 29.78048 | 31.89172 | 14331 ft | 284 kts | 278° |
| 2026-05-04 19:20 | 29.78556 | 31.86988 | 13981 ft | 283 kts | 289° |
| 2026-05-04 19:20 | 29.79452 | 31.84961 | 13513 ft | 287 kts | 300° |
| 2026-05-04 19:20 | 29.80640 | 31.83072 | 13136 ft | 286 kts | 303° |
| 2026-05-04 19:20 | 29.81815 | 31.81277 | 12770 ft | 284 kts | 303° |
| 2026-05-04 19:21 | 29.82996 | 31.79476 | 12438 ft | 281 kts | 303° |
| 2026-05-04 19:21 | 29.84169 | 31.77678 | 12103 ft | 279 kts | 303° |
| 2026-05-04 19:21 | 29.85339 | 31.75876 | 11763 ft | 276 kts | 303° |
| 2026-05-04 19:21 | 29.86483 | 31.74107 | 11430 ft | 274 kts | 303° |
| 2026-05-04 19:22 | 29.87602 | 31.72370 | 11110 ft | 272 kts | 303° |
| 2026-05-04 19:22 | 29.88724 | 31.70627 | 10781 ft | 271 kts | 303° |
| 2026-05-04 19:22 | 29.89842 | 31.68890 | 10513 ft | 267 kts | 303° |
| 2026-05-04 19:22 | 29.91119 | 31.67390 | 10382 ft | 264 kts | 324° |
| 2026-05-04 19:23 | 29.92861 | 31.66736 | 10283 ft | 267 kts | 349° |
| 2026-05-04 19:23 | 29.94711 | 31.66686 | 10192 ft | 266 kts | 354° |
| 2026-05-04 19:23 | 29.96554 | 31.66723 | 10133 ft | 264 kts | 354° |
| 2026-05-04 19:23 | 29.98421 | 31.66768 | 9977 ft | 273 kts | 354° |
| 2026-05-04 19:24 | 30.00341 | 31.66809 | 9771 ft | 279 kts | 354° |
| 2026-05-04 19:24 | 30.02290 | 31.66847 | 9527 ft | 281 kts | 355° |
| 2026-05-04 19:24 | 30.04243 | 31.66877 | 9211 ft | 281 kts | 355° |
| 2026-05-04 19:24 | 30.05570 | 31.66894 | 8891 ft | 283 kts | 355° |
| 2026-05-04 19:25 | 30.08200 | 31.66917 | 8307 ft | 287 kts | 355° |
| 2026-05-04 19:25 | 30.09528 | 31.66925 | 8012 ft | 289 kts | 355° |
| 2026-05-04 19:25 | 30.11535 | 31.67004 | 7522 ft | 295 kts | 1° |
| 2026-05-04 19:25 | 30.13623 | 31.67348 | 7034 ft | 299 kts | 4° |
| 2026-05-04 19:26 | 30.15678 | 31.67723 | 6561 ft | 302 kts | 5° |
| 2026-05-04 19:26 | 30.17775 | 31.68102 | 6046 ft | 304 kts | 5° |
| 2026-05-04 19:26 | 30.19869 | 31.68466 | 5540 ft | 305 kts | 5° |
| 2026-05-04 19:26 | 30.21939 | 31.68818 | 5251 ft | 294 kts | 5° |
| 2026-05-04 19:27 | 30.23916 | 31.69145 | 4955 ft | 280 kts | 5° |
| 2026-05-04 19:27 | 30.25792 | 31.69106 | 4629 ft | 262 kts | 339° |
| 2026-05-04 19:27 | 30.27228 | 31.67991 | 4343 ft | 246 kts | 306° |
| 2026-05-04 19:27 | 30.27763 | 31.66178 | 4057 ft | 239 kts | 271° |
| 2026-05-04 19:28 | 30.27217 | 31.64399 | 3777 ft | 240 kts | 234° |
| 2026-05-04 19:28 | 30.25971 | 31.63127 | 3540 ft | 235 kts | 224° |
| 2026-05-04 19:28 | 30.24798 | 31.61912 | 3470 ft | 217 kts | 229° |
| 2026-05-04 19:28 | 30.23803 | 31.60717 | 3412 ft | 197 kts | 233° |
| 2026-05-04 19:29 | 30.22941 | 31.59591 | 3315 ft | 176 kts | 235° |
| 2026-05-04 19:29 | 30.22170 | 31.58563 | 3219 ft | 163 kts | 236° |
| 2026-05-04 19:29 | 30.21434 | 31.57574 | 3222 ft | 162 kts | 236° |
| 2026-05-04 19:29 | 30.20689 | 31.56575 | 3042 ft | 165 kts | 236° |
| 2026-05-04 19:30 | 30.19953 | 31.55591 | 2831 ft | 164 kts | 236° |
| 2026-05-04 19:30 | 30.19197 | 31.54580 | 2613 ft | 163 kts | 236° |
| 2026-05-04 19:30 | 30.18483 | 31.53628 | 2394 ft | 156 kts | 236° |
| 2026-05-04 19:30 | 30.17778 | 31.52684 | 2185 ft | 150 kts | 237° |
| 2026-05-04 19:31 | 30.17102 | 31.51780 | 1990 ft | 148 kts | 238° |
| 2026-05-04 19:31 | 30.16428 | 31.50875 | 1797 ft | 149 kts | 237° |
| 2026-05-04 19:31 | 30.15759 | 31.49980 | 1603 ft | 150 kts | 236° |
| 2026-05-04 19:31 | 30.15072 | 31.49061 | 1383 ft | 152 kts | 236° |
| 2026-05-04 19:32 | 30.14392 | 31.48150 | 1183 ft | 144 kts | 234° |
| 2026-05-04 19:32 | 30.13744 | 31.47284 | 1003 ft | 145 kts | 234° |
| 2026-05-04 19:32 | 30.13072 | 31.46393 | 793 ft | 146 kts | 235° |
| 2026-05-04 19:32 | 30.12417 | 31.45503 | 609 ft | 146 kts | 234° |
| 2026-05-04 19:33 | 30.11765 | 31.44632 | 448 ft | 144 kts | 236° |
| 2026-05-04 19:33 | 30.11194 | 31.43872 | 448 ft | 103 kts | 228° |
| 2026-05-04 19:33 | 30.10826 | 31.43382 | 448 ft | 59 kts | 230° |
| 2026-05-04 19:33 | 30.10659 | 31.43158 | 448 ft | 25 kts | 229° |
| 2026-05-04 19:34 | 30.10561 | 31.43004 | 448 ft | 23 kts | 243° |
| 2026-05-04 19:34 | 30.10504 | 31.42834 | 448 ft | 22 kts | 251° |
| 2026-05-04 19:34 | 30.10457 | 31.42666 | 448 ft | 22 kts | 253° |
| 2026-05-04 19:34 | 30.10393 | 31.42512 | 448 ft | 21 kts | 230° |
| 2026-05-04 19:35 | 30.10299 | 31.42384 | 448 ft | 21 kts | 225° |
| 2026-05-04 19:35 | 30.10207 | 31.42263 | 448 ft | 20 kts | 230° |
| 2026-05-04 19:35 | 30.10117 | 31.42145 | 448 ft | 19 kts | 229° |
| 2026-05-04 19:35 | 30.10033 | 31.42028 | 448 ft | 19 kts | 240° |
| 2026-05-04 19:36 | 30.10024 | 31.41883 | 449 ft | 18 kts | 255° |
| 2026-05-04 19:36 | 30.09953 | 31.41769 | 449 ft | 17 kts | 230° |
| 2026-05-04 19:36 | 30.09910 | 31.41643 | 449 ft | 17 kts | 259° |
| 2026-05-04 19:36 | 30.09889 | 31.41513 | 449 ft | 16 kts | 259° |
| 2026-05-04 19:37 | 30.09869 | 31.41389 | 449 ft | 16 kts | 259° |
| 2026-05-04 19:37 | 30.09850 | 31.41268 | 450 ft | 15 kts | 259° |
| 2026-05-04 19:37 | 30.09829 | 31.41147 | 449 ft | 16 kts | 254° |
| 2026-05-04 19:37 | 30.09809 | 31.41019 | 438 ft | 17 kts | 261° |
| 2026-05-04 19:38 | 30.09789 | 31.40875 | 440 ft | 19 kts | 258° |
| 2026-05-04 19:38 | 30.09802 | 31.40729 | 423 ft | 21 kts | 310° |
| 2026-05-04 19:38 | 30.09905 | 31.40624 | 421 ft | 21 kts | 319° |
| 2026-05-04 19:38 | 30.09991 | 31.40539 | 411 ft | 1 kts | 319° |
| 2026-05-04 19:39 | 30.10013 | 31.40517 | 410 ft | 7 kts | 319° |
| 2026-05-04 19:39 | 30.10065 | 31.40465 | 405 ft | 13 kts | 319° |
| 2026-05-04 19:39 | 30.10145 | 31.40386 | 394 ft | 18 kts | 319° |
| 2026-05-04 19:39 | 30.10252 | 31.40281 | 388 ft | 21 kts | 319° |
| 2026-05-04 19:40 | 30.10363 | 31.40170 | 387 ft | 21 kts | 319° |
| 2026-05-04 19:40 | 30.10430 | 31.40070 | 391 ft | 15 kts | 271° |
| 2026-05-04 19:40 | 30.10383 | 31.39983 | 391 ft | 0 kts | 228° |
| 2026-05-04 19:41 | 30.10374 | 31.39972 | 390 ft | 4 kts | 229° |
| 2026-05-04 19:41 | 30.10341 | 31.39927 | 390 ft | 11 kts | 229° |
| 2026-05-04 19:41 | 30.10272 | 31.39835 | 390 ft | 18 kts | 230° |
| 2026-05-04 19:41 | 30.10188 | 31.39713 | 389 ft | 19 kts | 230° |
| 2026-05-04 19:42 | 30.10136 | 31.39585 | 388 ft | 19 kts | 302° |
| 2026-05-04 19:42 | 30.10225 | 31.39618 | 387 ft | 15 kts | 50° |
| 2026-05-04 19:42 | 30.10294 | 31.39711 | 384 ft | 15 kts | 48° |
| 2026-05-04 19:42 | 30.10372 | 31.39810 | 379 ft | 17 kts | 47° |
| 2026-05-04 19:43 | 30.10469 | 31.39867 | 377 ft | 18 kts | 348° |
| 2026-05-04 19:43 | 30.10595 | 31.39831 | 371 ft | 20 kts | 345° |
| 2026-05-04 19:43 | 30.10704 | 31.39796 | 369 ft | 11 kts | 345° |
| 2026-05-04 19:43 | 30.10747 | 31.39774 | 369 ft | 5 kts | 310° |
| 2026-05-04 19:44 | 30.10747 | 31.39730 | 369 ft | 6 kts | 254° |
| 2026-05-04 19:44 | 30.10740 | 31.39699 | 369 ft | 3 kts | 256° |
| 2026-05-04 19:44 | 30.10738 | 31.39690 | 369 ft | 0 kts | 256° |
| 2026-05-04 20:03 | 30.10739 | 31.39695 | 369 ft | 4 kts | 256° |
| 2026-05-04 20:04 | 30.10746 | 31.39725 | 369 ft | 4 kts | 256° |
| 2026-05-04 20:04 | 30.10752 | 31.39755 | 369 ft | 4 kts | 256° |
| 2026-05-04 20:04 | 30.10759 | 31.39785 | 369 ft | 6 kts | 255° |
| 2026-05-04 20:04 | 30.10758 | 31.39789 | 369 ft | 8 kts | 213° |
| 2026-05-04 20:05 | 30.10685 | 31.39809 | 369 ft | 16 kts | 143° |
| 2026-05-04 20:05 | 30.10682 | 31.39902 | 369 ft | 16 kts | 75° |
| 2026-05-04 20:05 | 30.10708 | 31.40009 | 369 ft | 3 kts | 75° |
| 2026-05-04 20:05 | 30.10738 | 31.40060 | 369 ft | 10 kts | 43° |
| 2026-05-04 20:06 | 30.10787 | 31.40115 | 376 ft | 12 kts | 29° |
| 2026-05-04 20:06 | 30.10855 | 31.40117 | 368 ft | 15 kts | 2° |
| 2026-05-04 20:06 | 30.10935 | 31.40138 | 362 ft | 14 kts | 18° |
| 2026-05-04 20:06 | 30.10980 | 31.40187 | 362 ft | 8 kts | 90° |
| 2026-05-04 20:07 | 30.10957 | 31.40283 | 365 ft | 16 kts | 108° |
| 2026-05-04 20:07 | 30.10924 | 31.40401 | 372 ft | 11 kts | 108° |
| 2026-05-04 20:07 | 30.10902 | 31.40496 | 378 ft | 16 kts | 91° |
| 2026-05-04 20:07 | 30.10945 | 31.40577 | 377 ft | 16 kts | 49° |
| 2026-05-04 20:08 | 30.10992 | 31.40641 | 378 ft | 16 kts | 49° |
| 2026-05-04 20:08 | 30.11062 | 31.40734 | 379 ft | 16 kts | 49° |
| 2026-05-04 20:08 | 30.11133 | 31.40828 | 385 ft | 16 kts | 49° |
| 2026-05-04 20:08 | 30.11205 | 31.40924 | 387 ft | 16 kts | 49° |
| 2026-05-04 20:09 | 30.11276 | 31.41019 | 388 ft | 16 kts | 49° |
| 2026-05-04 20:09 | 30.11332 | 31.41092 | 388 ft | 9 kts | 49° |
| 2026-05-04 20:09 | 30.11399 | 31.41186 | 388 ft | 16 kts | 48° |
| 2026-05-04 20:09 | 30.11466 | 31.41231 | 388 ft | 9 kts | 9° |
| 2026-05-04 20:10 | 30.11541 | 31.41211 | 388 ft | 16 kts | 342° |
| 2026-05-04 20:10 | 30.11645 | 31.41174 | 388 ft | 16 kts | 342° |
| 2026-05-04 20:10 | 30.11748 | 31.41137 | 389 ft | 16 kts | 342° |
| 2026-05-04 20:10 | 30.11852 | 31.41099 | 389 ft | 16 kts | 342° |
| 2026-05-04 20:11 | 30.11956 | 31.41062 | 389 ft | 16 kts | 342° |
| 2026-05-04 20:11 | 30.12061 | 31.41024 | 389 ft | 16 kts | 342° |
| 2026-05-04 20:11 | 30.12162 | 31.40988 | 389 ft | 16 kts | 342° |
| 2026-05-04 20:11 | 30.12266 | 31.40951 | 389 ft | 16 kts | 342° |
| 2026-05-04 20:12 | 30.12369 | 31.40913 | 389 ft | 16 kts | 342° |
| 2026-05-04 20:12 | 30.12473 | 31.40876 | 389 ft | 16 kts | 342° |
| 2026-05-04 20:12 | 30.12576 | 31.40839 | 389 ft | 16 kts | 342° |
| 2026-05-04 20:12 | 30.12636 | 31.40817 | 389 ft | 5 kts | 343° |
| 2026-05-04 20:13 | 30.12662 | 31.40747 | 389 ft | 12 kts | 251° |
| 2026-05-04 20:13 | 30.12658 | 31.40777 | 389 ft | 3 kts | 336° |
| 2026-05-04 20:13 | 30.12660 | 31.40734 | 389 ft | 7 kts | 255° |
| 2026-05-04 20:13 | 30.12645 | 31.40683 | 389 ft | 4 kts | 251° |
| 2026-05-04 20:14 | 30.12636 | 31.40652 | 389 ft | 0 kts | 253° |